Volcano, California
Current Conditions -  °F | °C
As of 5:15 PM on Saturday 22 Nov 2014 (Local Time) from KPVF Reporting Station
Overcast Overcast  
Wind Chill: 50°   Ceiling: 300
Heat Index: 50°   Visibility: 1.2mi
Dew Point: 50°   Wind: 0mph
Humidity: 100%   Direction: NA
Pressure: 30.16"   Gusts: NA
Location:  38.44°N, 120.63°W
Report Text: KPVF 230115Z AUTO 00000KT 1 1/4SM OVC003 10/10 A3016 RMK AO1
Loading
Personal Weather Stations






























Interactive Weather Map New forecast layout! Learn more

10-Day Weather Forecast

Advertisements
Track Severe Weather on mobile